Time;durP1;ratioP1;P1;durP2;ratioP2;P2;SDS_P1;SDS_P2;PMS_P1;PMS_P2;Temp;Humidity;BMP_temperature;BMP_pressure;BME280_temperature;BME280_humidity;BME280_pressure;Samples;Min_cycle;Max_cycle;Signal;HPM_P1;HPM_P2
2023/01/19 00:00:14;;;;;;;69.93;39.40;;;;;;;0.88;100.00;98195.25;5015006;28;20053;-75
2023/01/19 00:02:42;;;;;;;68.47;39.17;;;;;;;0.77;100.00;98194.75;5014591;28;20029;-75
2023/01/19 00:05:08;;;;;;;59.70;36.22;;;;;;;0.67;100.00;98201.88;5013436;28;20351;-76
2023/01/19 00:07:33;;;;;;;67.97;37.55;;;;;;;0.70;100.00;98211.19;5014361;28;20025;-75
2023/01/19 00:09:58;;;;;;;65.45;37.92;;;;;;;0.77;100.00;98215.25;5013619;28;20057;-75
2023/01/19 00:12:25;;;;;;;68.90;41.03;;;;;;;0.76;100.00;98203.34;5014473;28;20038;-75
2023/01/19 00:14:50;;;;;;;73.20;41.75;;;;;;;0.87;100.00;98224.34;5014710;28;20034;-75
2023/01/19 00:17:16;;;;;;;74.15;41.28;;;;;;;0.95;100.00;98234.34;5014669;28;20355;-75
2023/01/19 00:19:41;;;;;;;70.15;38.17;;;;;;;0.99;100.00;98243.63;5014269;28;20048;-75
2023/01/19 00:22:06;;;;;;;66.53;38.58;;;;;;;1.00;100.00;98251.28;5014350;28;20478;-75
2023/01/19 00:24:32;;;;;;;63.75;38.67;;;;;;;1.11;100.00;98265.50;5014097;28;20445;-75
2023/01/19 00:26:58;;;;;;;57.55;33.67;;;;;;;1.10;100.00;98262.09;5014318;28;20028;-76
2023/01/19 00:29:23;;;;;;;59.13;32.55;;;;;;;1.09;100.00;98252.72;5014029;28;20050;-75
2023/01/19 00:31:49;;;;;;;51.13;29.73;;;;;;;1.15;100.00;98267.94;5014478;28;20026;-75
2023/01/19 00:34:15;;;;;;;46.17;28.92;;;;;;;1.19;100.00;98271.25;5014344;28;20359;-75
2023/01/19 00:36:41;;;;;;;45.83;26.58;;;;;;;1.24;100.00;98282.19;5012592;28;20056;-75
2023/01/19 00:39:06;;;;;;;40.00;23.08;;;;;;;1.24;100.00;98285.59;5014203;28;20534;-75
2023/01/19 00:44:16;;;;;;;34.20;21.67;;;;;;;1.27;100.00;98284.66;5014265;28;20036;-75
2023/01/19 00:46:41;;;;;;;31.38;20.08;;;;;;;1.23;100.00;98272.81;5013768;28;20042;-75
2023/01/19 00:49:06;;;;;;;27.40;17.23;;;;;;;1.17;100.00;98273.84;5013902;28;20414;-76
2023/01/19 00:51:32;;;;;;;26.20;18.15;;;;;;;1.18;100.00;98270.41;5014131;28;20041;-75
2023/01/19 00:54:03;;;;;;;29.25;18.00;;;;;;;1.22;100.00;98286.50;5014056;28;20031;-76
2023/01/19 00:56:31;;;;;;;26.75;18.05;;;;;;;1.23;100.00;98285.66;5013919;28;20022;-76
2023/01/19 00:58:57;;;;;;;24.92;16.92;;;;;;;1.27;100.00;98296.66;5013424;28;20030;-75
2023/01/19 01:01:22;;;;;;;22.65;15.10;;;;;;;1.25;100.00;98297.53;5013568;28;20018;-75
2023/01/19 01:03:47;;;;;;;20.08;14.77;;;;;;;1.21;100.00;98306.19;5013594;28;20102;-75
2023/01/19 01:06:13;;;;;;;23.77;16.30;;;;;;;1.24;100.00;98312.97;5013941;28;20022;-75
2023/01/19 01:08:38;;;;;;;23.08;15.60;;;;;;;1.16;100.00;98304.66;5013619;28;20446;-75
2023/01/19 01:11:04;;;;;;;25.08;16.23;;;;;;;1.17;100.00;98301.19;5013966;28;20022;-75
2023/01/19 01:13:29;;;;;;;23.98;16.40;;;;;;;1.22;100.00;98313.03;5013469;28;20619;-75
2023/01/19 01:15:56;;;;;;;24.45;15.93;;;;;;;1.17;100.00;98311.47;5013515;28;20014;-75
2023/01/19 01:18:21;;;;;;;24.30;15.60;;;;;;;1.18;100.00;98318.25;5013364;28;20068;-75
2023/01/19 01:20:47;;;;;;;22.08;15.75;;;;;;;1.22;100.00;98330.97;5013732;28;20061;-75
2023/01/19 01:23:13;;;;;;;21.63;14.73;;;;;;;1.17;100.00;98325.13;5012086;28;20029;-75
2023/01/19 01:25:38;;;;;;;23.00;15.73;;;;;;;1.19;100.00;98333.63;5011900;28;20062;-75
2023/01/19 01:28:07;;;;;;;24.15;16.70;;;;;;;1.16;100.00;98320.06;5013292;28;20116;-75
2023/01/19 01:30:34;;;;;;;22.15;16.02;;;;;;;1.22;100.00;98346.38;5012821;28;20030;-75
2023/01/19 01:32:59;;;;;;;22.10;15.77;;;;;;;1.17;100.00;98329.41;5013033;28;20029;-75
2023/01/19 01:35:25;;;;;;;23.38;16.50;;;;;;;1.21;100.00;98347.22;5012961;28;20022;-76
2023/01/19 01:37:50;;;;;;;21.13;15.90;;;;;;;1.17;100.00;98339.69;5013284;28;20021;-75
2023/01/19 01:40:17;;;;;;;26.48;17.02;;;;;;;1.24;100.00;98352.28;5013149;28;20022;-75
2023/01/19 01:42:44;;;;;;;22.70;16.08;;;;;;;1.21;100.00;98346.38;5012886;28;20374;-75
2023/01/19 01:45:29;;;;;;;19.38;15.40;;;;;;;1.24;100.00;98351.44;5012929;28;20026;-75
2023/01/19 01:48:00;;;;;;;23.42;17.23;;;;;;;1.23;100.00;98360.03;5013254;28;20107;-75
2023/01/19 01:50:28;;;;;;;24.48;17.38;;;;;;;1.15;100.00;98346.59;5012714;28;20029;-75
2023/01/19 01:53:00;;;;;;;23.20;17.00;;;;;;;1.15;100.00;98346.59;5012865;28;20034;-75
2023/01/19 01:55:27;;;;;;;22.73;16.85;;;;;;;1.15;100.00;98344.03;5012720;28;20124;-75
2023/01/19 01:57:57;;;;;;;25.67;16.30;;;;;;;1.16;100.00;98351.66;5012600;28;20029;-75
2023/01/19 02:00:23;;;;;;;23.43;17.10;;;;;;;1.16;100.00;98349.09;5012855;28;20021;-75
2023/01/19 02:02:49;;;;;;;21.33;15.10;;;;;;;1.18;100.00;98360.16;5012778;28;20357;-75
2023/01/19 02:05:20;;;;;;;23.52;16.50;;;;;;;1.13;100.00;98346.63;5012601;28;20022;-75
2023/01/19 02:13:24;;;;;;;20.10;15.20;;;;;;;1.16;100.00;98351.66;5012497;28;20045;-75
2023/01/19 02:15:57;;;;;;;19.48;14.88;;;;;;;1.19;100.00;98361.84;5012407;28;20032;-75
2023/01/19 02:18:25;;;;;;;20.17;14.90;;;;;;;1.21;100.00;98364.34;5012591;28;20029;-75
2023/01/19 02:20:58;;;;;;;20.13;14.48;;;;;;;1.19;100.00;98366.97;5012370;28;20032;-75
2023/01/19 02:23:48;;;;;;;20.20;14.07;;;;;;;1.18;100.00;98369.56;5012462;28;20061;-75
2023/01/19 02:26:23;;;;;;;16.73;13.65;;;;;;;1.10;100.00;98363.84;5012306;28;20028;-75
2023/01/19 02:28:56;;;;;;;18.70;13.43;;;;;;;1.10;100.00;98364.69;5011965;28;20042;-75
2023/01/19 02:31:22;;;;;;;20.23;14.25;;;;;;;1.04;100.00;98353.75;5012218;28;20028;-75
2023/01/19 02:33:47;;;;;;;16.70;12.98;;;;;;;1.06;100.00;98359.69;5010977;28;20370;-75
2023/01/19 02:36:15;;;;;;;18.98;13.68;;;;;;;1.18;100.00;98378.13;5012273;28;20488;-75
2023/01/19 02:38:43;;;;;;;18.08;13.70;;;;;;;1.17;100.00;98373.00;5011992;28;20030;-75
2023/01/19 02:41:11;;;;;;;15.93;12.77;;;;;;;1.17;100.00;98381.53;5012143;28;20029;-75
2023/01/19 02:43:38;;;;;;;16.17;12.52;;;;;;;1.15;100.00;98370.50;5011595;28;20060;-75
2023/01/19 02:46:03;;;;;;;18.08;12.45;;;;;;;1.13;100.00;98376.53;5012157;28;20021;-75
2023/01/19 02:48:29;;;;;;;16.85;12.40;;;;;;;1.07;100.00;98374.19;5011962;28;20442;-75
2023/01/19 02:51:10;;;;;;;15.70;11.95;;;;;;;1.06;100.00;98370.78;5010672;28;20026;-75
2023/01/19 02:53:50;;;;;;;14.95;12.32;;;;;;;1.12;100.00;98388.53;5012061;28;20022;-75
2023/01/19 02:56:45;;;;;;;17.45;13.40;;;;;;;1.13;100.00;98386.81;5012076;28;20034;-75
2023/01/19 02:59:29;;;;;;;16.70;12.68;;;;;;;1.14;100.00;98396.19;5012030;28;20037;-75
2023/01/19 03:01:54;;;;;;;17.58;13.20;;;;;;;1.16;100.00;98394.41;5011871;28;20045;-75
2023/01/19 03:04:32;;;;;;;18.38;13.32;;;;;;;1.11;100.00;98380.91;5011810;28;20445;-75
2023/01/19 03:07:12;;;;;;;20.45;13.35;;;;;;;1.04;100.00;98371.69;5011798;28;20114;-75
2023/01/19 03:10:04;;;;;;;18.52;13.75;;;;;;;1.13;100.00;98386.81;5011657;28;20058;-75
2023/01/19 03:12:57;;;;;;;18.98;14.35;;;;;;;1.12;100.00;98377.44;5011646;28;20022;-75
2023/01/19 03:15:38;;;;;;;19.10;13.30;;;;;;;1.10;100.00;98382.63;5011791;28;20026;-75
2023/01/19 03:18:07;;;;;;;18.45;13.73;;;;;;;1.05;100.00;98371.63;5012178;28;20022;-75
2023/01/19 03:20:32;;;;;;;19.85;14.25;;;;;;;1.02;100.00;98371.75;5011766;28;20030;-76
2023/01/19 03:23:04;;;;;;;20.63;14.60;;;;;;;1.07;100.00;98385.25;5015346;28;20037;-75
2023/01/19 03:25:33;;;;;;;22.38;15.32;;;;;;;1.13;100.00;98386.81;5016102;28;20183;-76
2023/01/19 03:27:59;;;;;;;23.42;14.80;;;;;;;1.09;100.00;98373.22;5016136;28;20033;-76
2023/01/19 03:30:30;;;;;;;23.85;16.45;;;;;;;1.06;100.00;98378.47;5015675;28;20381;-75
2023/01/19 03:33:03;;;;;;;25.05;17.67;;;;;;;1.05;100.00;98363.94;5015537;28;20026;-75
2023/01/19 03:35:32;;;;;;;22.65;17.10;;;;;;;1.09;100.00;98367.25;5015366;28;20462;-75
2023/01/19 03:38:01;;;;;;;27.88;19.10;;;;;;;1.01;100.00;98354.66;5015254;28;20026;-75
2023/01/19 03:40:29;;;;;;;28.42;18.05;;;;;;;1.05;100.00;98366.50;5015407;28;20059;-75
2023/01/19 03:42:55;;;;;;;30.67;19.73;;;;;;;1.06;100.00;98369.94;5015429;28;20084;-75
2023/01/19 03:45:22;;;;;;;27.25;18.90;;;;;;;0.98;100.00;98368.41;5015389;28;20026;-76
2023/01/19 03:47:47;;;;;;;28.58;19.33;;;;;;;1.08;100.00;98380.97;5014971;28;20018;-75
2023/01/19 03:50:23;;;;;;;32.70;20.45;;;;;;;1.08;100.00;98381.81;5015053;28;20032;-75
2023/01/19 03:53:10;;;;;;;30.20;19.48;;;;;;;1.10;100.00;98382.63;5015008;28;20022;-75
2023/01/19 03:55:38;;;;;;;32.85;19.48;;;;;;;1.06;100.00;98385.31;5014897;28;20026;-76
2023/01/19 03:58:04;;;;;;;29.13;19.38;;;;;;;1.09;100.00;98387.78;5015016;28;20018;-76
2023/01/19 04:00:29;;;;;;;34.00;20.63;;;;;;;1.13;100.00;98389.38;5014904;28;20121;-75
2023/01/19 04:02:54;;;;;;;35.17;21.40;;;;;;;1.14;100.00;98397.03;5014527;28;20018;-75
2023/01/19 04:05:21;;;;;;;33.75;20.65;;;;;;;1.14;100.00;98397.03;5014931;28;20029;-75
2023/01/19 04:07:51;;;;;;;30.30;20.50;;;;;;;1.10;100.00;98385.19;5014770;28;20030;-75
2023/01/19 04:10:17;;;;;;;33.97;21.85;;;;;;;1.15;100.00;98397.88;5014948;28;20429;-75
2023/01/19 04:12:42;;;;;;;38.60;23.15;;;;;;;1.16;100.00;98394.41;5013192;28;20361;-75
2023/01/19 04:15:08;;;;;;;36.42;23.33;;;;;;;1.15;100.00;98393.59;5013403;28;20026;-75
2023/01/19 04:17:33;;;;;;;37.70;22.58;;;;;;;1.10;100.00;98387.75;5014288;28;20018;-75
2023/01/19 04:19:59;;;;;;;36.83;23.45;;;;;;;1.18;100.00;98397.75;5014801;28;20022;-75
2023/01/19 04:22:24;;;;;;;37.58;22.77;;;;;;;1.14;100.00;98391.91;5014574;28;20021;-75
2023/01/19 04:24:50;;;;;;;38.00;22.98;;;;;;;1.13;100.00;98397.06;5014380;28;20022;-76
2023/01/19 04:27:16;;;;;;;34.95;22.42;;;;;;;1.18;100.00;98400.31;5014461;28;20213;-75
2023/01/19 04:29:42;;;;;;;41.38;23.48;;;;;;;1.15;100.00;98397.88;5013949;28;20508;-76
2023/01/19 04:32:07;;;;;;;36.00;23.05;;;;;;;1.17;100.00;98401.22;5014462;28;20189;-76
2023/01/19 04:34:32;;;;;;;39.03;23.63;;;;;;;1.23;100.00;98411.31;5013820;28;20030;-75
2023/01/19 04:36:58;;;;;;;39.90;24.50;;;;;;;1.15;100.00;98400.44;5014232;28;20100;-75
2023/01/19 04:39:23;;;;;;;36.35;22.58;;;;;;;1.21;100.00;98420.75;5014438;28;20025;-75
2023/01/19 04:41:50;;;;;;;38.47;24.05;;;;;;;1.11;100.00;98404.81;5013963;28;20072;-75
2023/01/19 04:44:16;;;;;;;36.28;24.65;;;;;;;1.17;100.00;98420.00;5014203;28;20366;-75
2023/01/19 04:46:41;;;;;;;36.63;23.63;;;;;;;1.15;100.00;98424.34;5013859;28;20037;-75
2023/01/19 04:49:08;;;;;;;35.40;23.17;;;;;;;1.13;100.00;98423.53;5014277;28;20029;-76
2023/01/19 04:51:33;;;;;;;34.22;22.38;;;;;;;1.15;100.00;98439.75;5014055;28;20071;-75
2023/01/19 04:53:59;;;;;;;33.60;21.83;;;;;;;1.10;100.00;98430.50;5013683;28;20112;-75
2023/01/19 04:56:24;;;;;;;33.92;21.73;;;;;;;1.17;100.00;98444.81;5013770;28;20053;-76
2023/01/19 04:58:49;;;;;;;33.08;21.67;;;;;;;1.10;100.00;98435.63;5013599;28;20036;-76
2023/01/19 05:01:15;;;;;;;32.38;20.95;;;;;;;1.13;100.00;98448.34;5013704;28;20033;-76
2023/01/19 05:03:40;;;;;;;30.42;20.20;;;;;;;1.10;100.00;98445.91;5013416;28;20416;-76
2023/01/19 05:06:06;;;;;;;31.70;21.40;;;;;;;1.10;100.00;98449.28;5013880;28;20467;-76
2023/01/19 05:08:31;;;;;;;34.15;20.52;;;;;;;1.10;100.00;98451.03;5013740;28;20038;-75
2023/01/19 05:10:56;;;;;;;30.27;20.15;;;;;;;1.14;100.00;98466.28;5013489;28;20071;-75
2023/01/19 05:13:22;;;;;;;34.95;21.63;;;;;;;1.16;100.00;98476.47;5012218;28;20109;-75
2023/01/19 05:15:47;;;;;;;28.58;20.02;;;;;;;1.04;100.00;98464.84;5013255;28;20454;-75
2023/01/19 05:18:13;;;;;;;33.50;21.30;;;;;;;1.10;100.00;98484.34;5013729;28;20032;-76
2023/01/19 05:20:39;;;;;;;30.27;20.75;;;;;;;1.13;100.00;98499.63;5013579;28;20092;-76
2023/01/19 05:23:04;;;;;;;30.80;20.23;;;;;;;1.12;100.00;98511.63;5013381;28;20028;-76
2023/01/19 05:25:30;;;;;;;28.65;20.02;;;;;;;1.14;100.00;98515.00;5013410;28;20022;-76
2023/01/19 05:27:55;;;;;;;28.05;19.23;;;;;;;1.17;100.00;98530.28;5013166;28;20474;-75
2023/01/19 05:30:20;;;;;;;29.45;18.67;;;;;;;1.15;100.00;98524.38;5013176;28;20100;-76
2023/01/19 05:32:46;;;;;;;26.75;18.63;;;;;;;1.14;100.00;98511.59;5013346;28;20108;-75
2023/01/19 05:35:12;;;;;;;25.38;17.90;;;;;;;1.17;100.00;98514.91;5013513;28;20022;-76
2023/01/19 05:37:38;;;;;;;27.75;18.48;;;;;;;1.14;100.00;98509.03;5013405;28;20022;-75
2023/01/19 05:40:04;;;;;;;29.65;19.58;;;;;;;1.20;100.00;98519.97;5013002;28;20029;-76
2023/01/19 05:42:29;;;;;;;28.02;19.15;;;;;;;1.16;100.00;98497.00;5013525;28;20521;-75
2023/01/19 05:44:54;;;;;;;30.42;20.20;;;;;;;1.20;100.00;98516.56;5011869;28;20105;-75
2023/01/19 05:47:20;;;;;;;27.92;19.08;;;;;;;1.13;100.00;98495.34;5013228;28;20018;-75
2023/01/19 05:49:45;;;;;;;22.77;16.88;;;;;;;1.21;100.00;98505.41;5013134;28;20374;-76
2023/01/19 05:52:10;;;;;;;22.27;17.05;;;;;;;1.21;100.00;98505.41;5013131;28;20469;-75
2023/01/19 05:54:39;;;;;;;21.13;15.55;;;;;;;1.12;100.00;98493.66;5013250;28;20029;-76
2023/01/19 05:57:04;;;;;;;21.17;14.98;;;;;;;1.18;100.00;98506.34;5012878;28;20025;-75
2023/01/19 05:59:30;;;;;;;22.80;15.25;;;;;;;1.11;100.00;98501.41;5013046;28;20030;-76
2023/01/19 06:01:55;;;;;;;19.40;14.27;;;;;;;1.14;100.00;98516.72;5012937;28;20545;-76
2023/01/19 06:04:21;;;;;;;22.83;15.13;;;;;;;1.15;100.00;98523.53;5013057;28;20104;-75
2023/01/19 06:06:47;;;;;;;19.83;14.50;;;;;;;1.13;100.00;98521.00;5012787;28;20021;-76
2023/01/19 06:09:12;;;;;;;20.75;15.30;;;;;;;1.14;100.00;98524.41;5012890;28;20034;-76
2023/01/19 06:11:38;;;;;;;19.55;14.25;;;;;;;1.10;100.00;98518.53;5013082;28;20068;-76
2023/01/19 06:14:04;;;;;;;18.98;13.48;;;;;;;1.11;100.00;98538.16;5012973;28;20120;-76
2023/01/19 06:16:29;;;;;;;17.52;13.52;;;;;;;1.04;100.00;98531.50;5012680;28;20033;-75
2023/01/19 06:18:54;;;;;;;19.58;13.18;;;;;;;1.16;100.00;98561.13;5012618;28;20022;-75
2023/01/19 06:21:20;;;;;;;17.38;12.43;;;;;;;1.14;100.00;98552.63;5012760;28;20018;-76
2023/01/19 06:23:45;;;;;;;15.40;12.50;;;;;;;1.15;100.00;98572.25;5012272;28;20358;-76
2023/01/19 06:26:11;;;;;;;14.32;11.52;;;;;;;1.09;100.00;98573.25;5012701;28;20018;-76
2023/01/19 06:28:36;;;;;;;14.65;10.57;;;;;;;1.13;100.00;98581.69;5012262;28;20524;-76
2023/01/19 06:31:02;;;;;;;13.57;9.75;;;;;;;1.14;100.00;98584.25;5012553;28;20424;-75
2023/01/19 06:33:28;;;;;;;13.50;10.57;;;;;;;1.11;100.00;98571.50;5012690;28;20127;-75
2023/01/19 06:35:54;;;;;;;12.15;10.40;;;;;;;1.07;100.00;98567.31;5012431;28;20291;-75
2023/01/19 06:38:19;;;;;;;13.70;10.30;;;;;;;1.14;100.00;98576.56;5012491;28;20425;-75
2023/01/19 06:40:52;;;;;;;11.48;9.95;;;;;;;1.14;100.00;98573.16;5012145;28;20025;-76
2023/01/19 06:43:19;;;;;;;12.13;9.75;;;;;;;1.13;100.00;98579.13;5012159;28;20022;-76
2023/01/19 06:45:44;;;;;;;13.18;9.57;;;;;;;1.15;100.00;98590.22;5012328;28;20018;-76
2023/01/19 06:48:09;;;;;;;12.68;10.20;;;;;;;1.08;100.00;98574.13;5012437;28;20076;-75
2023/01/19 06:50:35;;;;;;;13.27;10.63;;;;;;;1.14;100.00;98586.81;5012284;28;20014;-76
2023/01/19 06:53:00;;;;;;;14.48;11.40;;;;;;;1.07;100.00;98579.31;5012097;28;20036;-76
2023/01/19 06:55:25;;;;;;;15.65;11.30;;;;;;;1.09;100.00;98586.06;5011876;28;20524;-76
2023/01/19 06:57:58;;;;;;;20.30;12.80;;;;;;;1.16;100.00;98597.00;5011825;28;20021;-76
2023/01/19 07:00:23;;;;;;;20.60;14.20;;;;;;;1.15;100.00;98603.88;5012128;28;20493;-75
2023/01/19 07:02:49;;;;;;;24.92;16.63;;;;;;;1.15;100.00;98598.75;5011916;28;20129;-76
2023/01/19 07:05:14;;;;;;;20.08;14.77;;;;;;;1.10;100.00;98590.34;5012305;28;20026;-76
2023/01/19 07:07:41;;;;;;;20.45;14.27;;;;;;;1.14;100.00;98606.50;5012201;28;20033;-75
2023/01/19 07:10:08;;;;;;;20.75;14.52;;;;;;;1.15;100.00;98613.28;5011937;28;20018;-76
2023/01/19 07:12:34;;;;;;;16.67;12.93;;;;;;;1.14;100.00;98611.63;5012056;28;20088;-75
2023/01/19 07:14:59;;;;;;;18.00;12.27;;;;;;;1.08;100.00;98607.47;5011956;28;20061;-76
2023/01/19 07:17:25;;;;;;;15.65;13.43;;;;;;;1.14;100.00;98611.63;5012198;28;20105;-75
2023/01/19 07:19:51;;;;;;;15.23;11.95;;;;;;;1.10;100.00;98613.41;5011862;28;20018;-75
2023/01/19 07:22:16;;;;;;;15.82;12.13;;;;;;;1.16;100.00;98614.97;5011848;28;20022;-76
2023/01/19 07:24:41;;;;;;;14.60;11.77;;;;;;;1.11;100.00;98601.44;5012099;28;20370;-75
2023/01/19 07:27:07;;;;;;;12.88;10.70;;;;;;;1.16;100.00;98612.41;5011684;28;20409;-75
2023/01/19 07:29:32;;;;;;;12.80;10.52;;;;;;;1.13;100.00;98600.50;5012165;28;20088;-75
2023/01/19 07:31:58;;;;;;;11.57;10.18;;;;;;;1.18;100.00;98608.06;5011812;28;20013;-76
2023/01/19 07:34:23;;;;;;;12.18;10.48;;;;;;;1.17;100.00;98611.50;5011963;28;20058;-76
2023/01/19 07:36:48;;;;;;;13.48;11.15;;;;;;;1.22;100.00;98614.78;5011805;28;20026;-76
2023/01/19 07:39:14;;;;;;;14.20;11.15;;;;;;;1.13;100.00;98600.50;5011782;28;20084;-75
2023/01/19 07:41:40;;;;;;;13.77;11.25;;;;;;;1.12;100.00;98608.22;5011621;28;20029;-76
2023/01/19 07:44:05;;;;;;;14.15;11.63;;;;;;;1.15;100.00;98618.41;5011699;28;20026;-76
2023/01/19 07:46:31;;;;;;;12.48;10.55;;;;;;;1.11;100.00;98615.09;5011885;28;20018;-75
2023/01/19 07:48:56;;;;;;;15.00;11.38;;;;;;;1.08;100.00;98616.88;5012196;28;20033;-76
2023/01/19 07:51:22;;;;;;;13.40;11.18;;;;;;;1.13;100.00;98625.28;5011812;28;20431;-76
2023/01/19 07:53:50;;;;;;;14.85;11.07;;;;;;;1.10;100.00;98617.69;5012100;28;20030;-76
2023/01/19 07:56:15;;;;;;;13.70;11.00;;;;;;;1.14;100.00;98621.88;5011480;28;20462;-76
2023/01/19 07:58:41;;;;;;;12.65;9.98;;;;;;;1.15;100.00;98614.13;5011826;28;20084;-76
2023/01/19 08:01:08;;;;;;;14.05;10.00;;;;;;;1.16;100.00;98610.69;5011594;28;20480;-76
2023/01/19 08:03:34;;;;;;;11.93;10.10;;;;;;;1.11;100.00;98593.72;5011691;28;20068;-76
2023/01/19 08:05:59;;;;;;;12.70;9.98;;;;;;;1.18;100.00;98603.81;5011416;28;20493;-76
2023/01/19 08:08:24;;;;;;;12.95;10.02;;;;;;;1.18;100.00;98608.94;5013073;28;20017;-76
2023/01/19 08:10:51;;;;;;;11.70;9.88;;;;;;;1.15;100.00;98603.03;5015023;28;20068;-76
2023/01/19 08:13:17;;;;;;;14.32;10.95;;;;;;;1.15;100.00;98601.31;5015177;28;20034;-76
2023/01/19 08:15:43;;;;;;;12.98;10.10;;;;;;;1.23;100.00;98613.94;5015301;28;20104;-76
2023/01/19 08:18:10;;;;;;;13.50;10.57;;;;;;;1.20;100.00;98604.59;5014795;28;20842;-76
2023/01/19 08:20:36;;;;;;;12.68;10.23;;;;;;;1.20;100.00;98608.88;5014996;28;20021;-76
2023/01/19 08:23:01;;;;;;;13.80;11.23;;;;;;;1.22;100.00;98618.22;5014622;28;20021;-76
2023/01/19 08:25:37;;;;;;;20.35;13.18;;;;;;;1.16;100.00;98608.13;5014832;28;20022;-76
2023/01/19 08:28:04;;;;;;;17.95;12.48;;;;;;;1.23;100.00;98626.78;5014714;28;20053;-76
2023/01/19 08:30:30;;;;;;;19.73;13.10;;;;;;;1.21;100.00;98633.63;5014794;28;20050;-76
2023/01/19 08:33:02;;;;;;;23.02;15.38;;;;;;;1.18;100.00;98632.00;5014424;28;20029;-76
2023/01/19 08:35:32;;;;;;;24.23;16.00;;;;;;;1.12;100.00;98628.75;5014647;28;20057;-76
2023/01/19 08:38:00;;;;;;;24.52;15.82;;;;;;;1.22;100.00;98645.56;5014251;28;20026;-76
2023/01/19 08:40:27;;;;;;;19.92;14.00;;;;;;;1.22;100.00;98651.56;5014717;28;20026;-76
2023/01/19 08:42:59;;;;;;;17.58;11.95;;;;;;;1.15;100.00;98644.91;5014276;28;20018;-76
2023/01/19 08:45:24;;;;;;;19.40;13.80;;;;;;;1.13;100.00;98638.97;5014554;28;20022;-76
2023/01/19 08:47:50;;;;;;;18.02;12.48;;;;;;;1.18;100.00;98655.09;5014408;28;20037;-76
2023/01/19 08:50:15;;;;;;;16.17;12.57;;;;;;;1.11;100.00;98645.03;5014235;28;20026;-76
2023/01/19 08:52:41;;;;;;;20.67;14.98;;;;;;;1.15;100.00;98650.03;5014437;28;20080;-76
2023/01/19 08:55:07;;;;;;;20.30;14.50;;;;;;;1.22;100.00;98645.56;5014189;28;20030;-76
2023/01/19 08:57:32;;;;;;;21.33;14.93;;;;;;;1.34;100.00;98657.25;5014038;28;20025;-76
2023/01/19 08:59:58;;;;;;;19.45;14.27;;;;;;;1.36;100.00;98642.69;5013969;28;20026;-76
2023/01/19 09:02:23;;;;;;;22.80;17.02;;;;;;;1.44;100.00;98651.03;5013949;28;20022;-76
2023/01/19 09:04:49;;;;;;;20.77;15.48;;;;;;;1.50;100.00;98648.28;5014006;28;20421;-76
2023/01/19 09:07:14;;;;;;;18.30;13.55;;;;;;;1.59;100.00;98663.44;5013656;28;20026;-76
2023/01/19 09:09:42;;;;;;;21.15;14.68;;;;;;;1.62;100.00;98665.09;5014120;28;20091;-76
2023/01/19 09:12:07;;;;;;;22.73;14.05;;;;;;;1.64;100.00;98658.19;5014042;28;20049;-76
2023/01/19 09:14:32;;;;;;;18.70;13.00;;;;;;;1.63;100.00;98677.88;5013911;28;20470;-76
2023/01/19 09:16:58;;;;;;;17.52;12.10;;;;;;;1.54;100.00;98667.88;5013570;28;20176;-76
2023/01/19 09:19:23;;;;;;;18.05;11.43;;;;;;;1.55;100.00;98690.06;5013406;28;20026;-76
2023/01/19 09:21:49;;;;;;;38.75;23.75;;;;;;;1.63;100.00;98689.88;5013669;28;20014;-76
2023/01/19 09:24:15;;;;;;;219.23;106.57;;;;;;;1.70;100.00;98691.41;5013529;28;20026;-76
2023/01/19 09:26:40;;;;;;;90.10;45.72;;;;;;;1.68;100.00;98680.31;5012961;28;20041;-76
2023/01/19 09:29:05;;;;;;;25.52;15.82;;;;;;;1.78;100.00;98696.34;5001041;28;20382;-76
2023/01/19 09:31:30;;;;;;;28.35;16.70;;;;;;;1.81;100.00;98694.53;5003249;28;20022;-76
2023/01/19 09:33:56;;;;;;;27.10;17.33;;;;;;;1.88;100.00;98706.31;4995592;28;20037;-76
2023/01/19 09:36:21;;;;;;;34.13;24.33;;;;;;;1.92;100.00;98702.78;4994234;28;20037;-76
2023/01/19 09:38:46;;;;;;;32.65;20.00;;;;;;;1.86;100.00;98682.44;4993209;28;20030;-76
2023/01/19 09:41:20;;;;;;;37.15;21.95;;;;;;;1.99;99.34;98701.75;4992756;28;20022;-78
2023/01/19 09:43:59;;;;;;;29.25;17.85;;;;;;;2.00;98.97;98703.44;4992787;28;20026;-77
2023/01/19 09:46:38;;;;;;;23.77;15.75;;;;;;;1.93;98.99;98688.22;4992742;28;20014;-78
2023/01/19 09:49:17;;;;;;;22.90;15.68;;;;;;;1.94;98.88;98689.94;4992542;28;20030;-78
2023/01/19 09:51:46;;;;;;;56.08;31.83;;;;;;;2.04;98.91;98698.22;4992628;28;20438;-77
2023/01/19 09:54:35;;;;;;;31.08;19.88;;;;;;;2.04;98.80;98699.06;4992375;28;20030;-77
2023/01/19 09:57:01;;;;;;;33.45;20.45;;;;;;;2.02;98.32;98679.44;4992014;28;20022;-78
2023/01/19 09:59:31;;;;;;;35.65;21.73;;;;;;;2.05;98.36;98684.47;4992579;28;20026;-77
2023/01/19 10:02:10;;;;;;;34.75;23.58;;;;;;;2.09;98.53;98691.22;4992305;28;20462;-78
2023/01/19 10:04:51;;;;;;;24.60;15.18;;;;;;;2.11;98.42;98684.34;4992469;28;20413;-76
2023/01/19 10:07:19;;;;;;;23.95;13.45;;;;;;;2.11;97.85;98676.63;4992192;28;20707;-77
2023/01/19 10:10:03;;;;;;;15.55;11.20;;;;;;;2.12;97.45;98665.47;4992592;28;20038;-78
2023/01/19 10:12:41;;;;;;;17.85;11.98;;;;;;;2.17;97.31;98668.72;4992309;28;20072;-77
2023/01/19 10:15:31;;;;;;;17.63;11.10;;;;;;;2.16;97.21;98660.19;4992115;28;20014;-77
2023/01/19 10:18:15;;;;;;;16.30;10.87;;;;;;;2.14;96.80;98661.09;4991987;28;20053;-77
2023/01/19 10:20:47;;;;;;;17.73;11.45;;;;;;;2.01;96.85;98645.19;4992538;28;20046;-77
2023/01/19 10:23:22;;;;;;;21.10;13.77;;;;;;;1.96;96.81;98652.19;4992403;28;20026;-74
2023/01/19 10:25:48;;;;;;;20.13;14.30;;;;;;;1.90;96.74;98653.22;4992940;28;20019;-78
2023/01/19 10:28:24;;;;;;;18.92;12.50;;;;;;;1.71;97.33;98652.84;4992362;28;20032;-77
2023/01/19 10:30:53;;;;;;;22.63;13.57;;;;;;;1.63;97.59;98661.66;4992149;28;20066;-77
2023/01/19 10:33:19;;;;;;;20.65;11.98;;;;;;;1.39;95.61;98666.53;4992437;28;20125;-77
2023/01/19 10:35:46;;;;;;;18.58;12.43;;;;;;;1.23;95.04;98676.34;4992552;28;20429;-77
2023/01/19 10:38:14;;;;;;;16.10;10.98;;;;;;;1.07;94.42;98674.19;4992211;28;20458;-77
2023/01/19 10:40:56;;;;;;;15.70;10.35;;;;;;;0.96;94.52;98671.84;4992347;28;20030;-77
2023/01/19 10:43:34;;;;;;;15.25;11.15;;;;;;;0.89;94.68;98676.31;4992464;28;20377;-77
2023/01/19 10:46:04;;;;;;;18.88;12.20;;;;;;;0.83;95.54;98668.75;4992650;28;20026;-77
2023/01/19 10:48:37;;;;;;;21.42;13.68;;;;;;;0.86;96.69;98667.84;4992976;28;20435;-77
2023/01/19 10:51:04;;;;;;;20.45;13.43;;;;;;;0.90;97.35;98669.44;4992472;28;20030;-77
2023/01/19 10:53:30;;;;;;;18.27;12.18;;;;;;;0.93;97.58;98675.34;4992716;28;20026;-77
2023/01/19 10:56:15;;;;;;;17.70;11.43;;;;;;;1.09;97.17;98690.34;4992618;28;20080;-77
2023/01/19 10:58:41;;;;;;;16.38;11.00;;;;;;;1.13;97.73;98679.16;4992638;28;20018;-77
2023/01/19 11:01:22;;;;;;;15.77;11.95;;;;;;;1.23;98.18;98681.47;4992312;28;20031;-77
2023/01/19 11:03:47;;;;;;;18.55;11.57;;;;;;;1.12;98.28;98659.53;4992333;28;20173;-77
2023/01/19 11:06:16;;;;;;;15.70;10.63;;;;;;;1.22;98.42;98686.63;4992475;28;20135;-77
2023/01/19 11:08:46;;;;;;;16.75;11.80;;;;;;;1.17;98.12;98680.75;4992885;28;20026;-77
2023/01/19 11:11:12;;;;;;;24.00;14.70;;;;;;;1.11;98.28;98684.31;4992283;28;20034;-77
2023/01/19 11:13:38;;;;;;;26.23;15.10;;;;;;;1.14;99.23;98684.25;4992557;28;20027;-77
2023/01/19 11:16:17;;;;;;;25.88;15.13;;;;;;;1.14;99.80;98679.13;4992131;28;20105;-77
2023/01/19 11:18:44;;;;;;;26.27;14.65;;;;;;;1.09;100.00;98672.41;4992638;28;20104;-77
2023/01/19 11:21:12;;;;;;;18.40;13.15;;;;;;;1.15;99.50;98675.69;4992236;28;20030;-77
2023/01/19 11:23:48;;;;;;;27.85;17.80;;;;;;;1.11;99.00;98668.09;4992248;28;20022;-77
2023/01/19 11:26:24;;;;;;;23.75;14.65;;;;;;;1.06;98.99;98655.41;4992143;28;20049;-77
2023/01/19 11:28:53;;;;;;;19.27;13.07;;;;;;;1.04;99.28;98662.25;4992063;28;20058;-77
2023/01/19 11:31:27;;;;;;;15.95;10.55;;;;;;;1.09;98.27;98665.56;4992336;28;20026;-77